createdAt,value
2022-08-17T00:00:42.579Z,38.95
2022-08-17T00:03:18.278Z,39.51
2022-08-17T00:05:52.659Z,39.36
2022-08-17T00:08:26.096Z,39.11
2022-08-17T00:10:55.389Z,39.37
2022-08-17T00:13:28.477Z,38.98
2022-08-17T00:16:07.374Z,38.53
2022-08-17T00:19:01.315Z,39.30
2022-08-17T00:21:25.865Z,41.25
2022-08-17T00:24:15.064Z,41.19
2022-08-17T00:26:44.993Z,41.19
2022-08-17T00:29:19.337Z,41.63
2022-08-17T00:34:16.982Z,41.82
2022-08-17T00:36:45.393Z,41.71
2022-08-17T00:39:13.854Z,41.44
2022-08-17T00:41:42.828Z,42.32
2022-08-17T00:44:12.198Z,42.08
2022-08-17T00:46:42.776Z,42.25
2022-08-17T00:49:14.494Z,41.50
2022-08-17T00:51:55.966Z,41.12
2022-08-17T00:54:33.262Z,42.17
2022-08-17T00:57:34.970Z,41.54
2022-08-17T01:00:34.667Z,41.14
2022-08-17T01:03:16.717Z,41.02
2022-08-17T01:05:47.402Z,40.69
2022-08-17T01:08:19.632Z,40.70
2022-08-17T01:10:58.882Z,40.62
2022-08-17T01:13:43.769Z,40.31
2022-08-17T01:16:20.240Z,40.31
2022-08-17T01:18:52.065Z,40.50
2022-08-17T01:21:24.541Z,40.24
2022-08-17T01:23:53.086Z,41.50
2022-08-17T01:26:22.133Z,41.16
2022-08-17T01:28:54.509Z,41.35
2022-08-17T01:31:29.290Z,41.38
2022-08-17T01:34:01.814Z,41.23
2022-08-17T01:36:30.552Z,40.87
2022-08-17T01:39:00.096Z,40.84
2022-08-17T01:41:28.781Z,40.42
2022-08-17T01:44:04.145Z,40.35
2022-08-17T01:46:36.877Z,40.41
2022-08-17T01:49:07.987Z,40.44
2022-08-17T01:51:36.686Z,40.58
2022-08-17T01:54:10.305Z,40.60
2022-08-17T01:56:42.890Z,40.30
2022-08-17T01:59:12.368Z,40.61
2022-08-17T02:01:41.466Z,39.56
2022-08-17T02:04:10.089Z,40.01
2022-08-17T02:06:52.461Z,41.22
2022-08-17T02:09:25.512Z,40.42
2022-08-17T02:11:56.323Z,40.42
2022-08-17T02:14:25.709Z,40.59
2022-08-17T02:16:54.534Z,40.54
2022-08-17T02:19:23.140Z,40.93
2022-08-17T02:21:53.774Z,41.03
2022-08-17T02:25:01.252Z,41.48
2022-08-17T02:27:15.701Z,42.19
2022-08-17T02:29:44.155Z,41.76
2022-08-17T02:32:27.841Z,41.99
2022-08-17T02:34:57.916Z,41.83
2022-08-17T02:37:28.102Z,42.38
2022-08-17T02:39:58.523Z,42.55
2022-08-17T02:42:36.981Z,42.25
2022-08-17T02:45:11.117Z,41.71
2022-08-17T02:47:40.815Z,42.50
2022-08-17T02:50:11.205Z,42.12
2022-08-17T02:52:43.734Z,43.08
2022-08-17T02:55:16.821Z,42.39
2022-08-17T02:57:45.746Z,42.30
2022-08-17T03:00:25.729Z,42.68
2022-08-17T03:02:56.440Z,42.22
2022-08-17T03:05:26.993Z,42.39
2022-08-17T03:07:56.461Z,42.68
2022-08-17T03:10:25.592Z,42.44
2022-08-17T03:12:54.301Z,42.17
2022-08-17T03:15:26.100Z,42.45
2022-08-17T03:17:54.670Z,41.90
2022-08-17T03:20:24.835Z,42.54
2022-08-17T03:22:55.872Z,41.79
2022-08-17T03:25:34.441Z,42.30
2022-08-17T03:28:03.325Z,42.23
2022-08-17T03:30:32.708Z,42.01
2022-08-17T03:33:07.127Z,42.16
2022-08-17T03:35:37.651Z,42.10
2022-08-17T03:38:07.628Z,41.36
2022-08-17T03:40:58.204Z,41.89
2022-08-17T03:43:25.817Z,40.85
2022-08-17T03:46:27.800Z,41.99
2022-08-17T03:49:25.968Z,42.09
2022-08-17T03:52:14.762Z,43.27
2022-08-17T03:55:03.133Z,42.87
2022-08-17T03:57:32.305Z,43.78
2022-08-17T04:00:00.748Z,43.27
2022-08-17T04:02:34.066Z,43.23
2022-08-17T04:05:02.580Z,42.55
2022-08-17T04:07:31.346Z,43.45
2022-08-17T04:10:00.551Z,43.07
2022-08-17T04:12:42.012Z,42.37
2022-08-17T04:15:12.540Z,42.02
2022-08-17T04:17:41.004Z,42.52
2022-08-17T04:20:10.706Z,42.29
2022-08-17T04:22:39.324Z,44.07
2022-08-17T04:25:14.992Z,46.33
2022-08-17T04:27:43.502Z,50.68
2022-08-17T04:30:12.848Z,52.38
2022-08-17T04:32:58.497Z,50.82
2022-08-17T04:35:42.333Z,46.29
2022-08-17T04:38:14.332Z,45.81
2022-08-17T04:41:01.980Z,48.26
2022-08-17T04:43:31.932Z,51.06
2022-08-17T04:46:03.283Z,47.50
2022-08-17T04:48:37.781Z,45.45
2022-08-17T04:51:16.094Z,46.64
2022-08-17T04:53:53.905Z,47.68
2022-08-17T04:56:25.795Z,48.34
2022-08-17T04:58:57.143Z,48.70
2022-08-17T05:01:27.948Z,48.63
2022-08-17T05:04:00.008Z,49.98
2022-08-17T05:06:30.987Z,49.64
2022-08-17T05:09:00.165Z,48.45
2022-08-17T05:11:29.841Z,46.26
2022-08-17T05:13:59.003Z,47.83
2022-08-17T05:16:28.792Z,47.69
2022-08-17T05:18:58.567Z,47.36
2022-08-17T05:21:27.256Z,48.59
2022-08-17T05:23:58.455Z,47.71
2022-08-17T05:26:29.291Z,47.59
2022-08-17T05:29:00.592Z,47.31
2022-08-17T05:31:31.989Z,45.96
2022-08-17T05:34:00.445Z,46.05
2022-08-17T05:36:43.191Z,46.82
2022-08-17T05:39:16.707Z,47.48
2022-08-17T05:41:47.783Z,47.76
2022-08-17T05:44:16.611Z,48.12
2022-08-17T05:46:49.801Z,47.46
2022-08-17T05:49:25.393Z,46.53
2022-08-17T05:52:19.792Z,45.91
2022-08-17T05:55:05.994Z,47.35
2022-08-17T05:58:06.593Z,47.20
2022-08-17T06:00:50.688Z,46.90
2022-08-17T06:03:28.920Z,45.12
2022-08-17T06:06:06.395Z,46.48
2022-08-17T06:09:09.929Z,46.88
2022-08-17T06:12:20.078Z,46.51
2022-08-17T06:15:33.888Z,46.58
2022-08-17T06:18:06.405Z,46.32
2022-08-17T06:20:55.857Z,45.89
2022-08-17T06:23:48.539Z,46.25
2022-08-17T06:26:38.488Z,45.79
2022-08-17T06:29:49.563Z,46.23
2022-08-17T06:32:18.236Z,47.38
2022-08-17T06:34:47.868Z,46.85
2022-08-17T06:37:48.774Z,45.85
2022-08-17T06:40:35.217Z,44.79
2022-08-17T06:43:12.537Z,45.95
2022-08-17T06:45:49.398Z,46.73
2022-08-17T06:48:36.268Z,45.52
2022-08-17T06:51:18.277Z,45.93
2022-08-17T06:54:07.027Z,44.97
2022-08-17T06:56:54.338Z,45.76
2022-08-17T06:59:54.485Z,46.13
2022-08-17T07:02:52.210Z,46.72
2022-08-17T07:05:26.532Z,47.48
2022-08-17T07:08:04.515Z,47.83
2022-08-17T07:10:44.772Z,48.31
2022-08-17T07:13:25.698Z,46.65
2022-08-17T07:16:04.658Z,47.44
2022-08-17T07:18:34.099Z,47.55
2022-08-17T07:21:17.588Z,48.16
2022-08-17T07:24:29.559Z,48.49
2022-08-17T07:27:12.905Z,49.24
2022-08-17T07:29:48.793Z,48.62
2022-08-17T07:32:22.752Z,46.56
2022-08-17T07:35:08.410Z,47.53
2022-08-17T07:37:55.645Z,47.38
2022-08-17T07:40:28.464Z,47.62
2022-08-17T07:43:18.754Z,47.36
2022-08-17T07:46:09.153Z,47.93
2022-08-17T07:48:40.896Z,48.65
2022-08-17T07:51:18.276Z,47.43
2022-08-17T07:53:47.226Z,47.50
2022-08-17T07:56:40.383Z,47.44
2022-08-17T07:59:23.558Z,48.61
2022-08-17T08:02:03.390Z,47.94
2022-08-17T08:04:59.599Z,49.12
2022-08-17T08:07:52.248Z,48.00
2022-08-17T08:10:30.337Z,46.53
2022-08-17T08:13:21.946Z,48.16
2022-08-17T08:15:54.702Z,49.33
2022-08-17T08:18:53.612Z,51.19
2022-08-17T08:21:38.054Z,49.13
2022-08-17T08:24:42.231Z,48.40
2022-08-17T08:27:20.221Z,50.22
2022-08-17T08:30:05.013Z,49.52
2022-08-17T08:32:57.655Z,47.20
2022-08-17T08:35:58.813Z,49.08
2022-08-17T08:38:30.845Z,47.75
2022-08-17T08:41:16.265Z,46.36
2022-08-17T08:44:02.543Z,45.52
2022-08-17T08:46:43.332Z,45.44
2022-08-17T08:50:02.063Z,46.71
2022-08-17T08:52:32.194Z,47.42
2022-08-17T08:55:32.410Z,45.84
2022-08-17T08:58:09.235Z,47.57
2022-08-17T09:01:00.614Z,49.64
2022-08-17T09:03:53.207Z,48.37
2022-08-17T09:06:39.730Z,47.54
2022-08-17T09:09:39.516Z,47.03
2022-08-17T09:12:38.974Z,47.38
2022-08-17T09:15:17.683Z,46.11
2022-08-17T09:19:01.473Z,46.73
2022-08-17T09:20:58.096Z,45.00
2022-08-17T09:24:06.062Z,45.51
2022-08-17T09:26:43.837Z,45.63
2022-08-17T09:29:17.358Z,45.03
2022-08-17T09:31:55.557Z,44.27
2022-08-17T09:34:43.647Z,43.84
2022-08-17T09:37:32.398Z,44.60
2022-08-17T09:40:18.153Z,44.86
2022-08-17T09:42:56.067Z,44.84
2022-08-17T09:45:35.342Z,45.18
2022-08-17T09:48:14.311Z,45.75
2022-08-17T09:51:04.639Z,47.44
2022-08-17T09:53:39.936Z,46.41
2022-08-17T09:56:25.224Z,47.88
2022-08-17T09:59:27.360Z,49.35
2022-08-17T10:02:22.525Z,50.44
2022-08-17T10:05:13.545Z,51.43
2022-08-17T10:07:57.364Z,51.31
2022-08-17T10:10:32.419Z,50.56
2022-08-17T10:13:47.198Z,48.06
2022-08-17T10:16:25.600Z,49.09
2022-08-17T10:19:08.715Z,49.71
2022-08-17T10:22:01.001Z,49.57
2022-08-17T10:25:13.513Z,50.95
2022-08-17T10:27:54.702Z,53.47
2022-08-17T10:30:26.742Z,54.46
2022-08-17T10:33:14.297Z,55.54
2022-08-17T10:35:57.829Z,56.69
2022-08-17T10:38:45.953Z,57.71
2022-08-17T10:41:41.631Z,58.29
2022-08-17T10:44:46.938Z,57.11
2022-08-17T10:47:18.385Z,56.08
2022-08-17T10:49:54.066Z,55.67
2022-08-17T10:52:25.007Z,53.67
2022-08-17T10:54:59.452Z,54.70
2022-08-17T10:57:33.781Z,54.89
2022-08-17T11:00:30.666Z,55.72
2022-08-17T11:02:59.406Z,56.09
2022-08-17T11:05:59.828Z,54.24
2022-08-17T11:08:28.195Z,52.91
2022-08-17T11:11:23.371Z,53.25
2022-08-17T11:14:31.749Z,51.94
2022-08-17T11:17:31.668Z,53.21
2022-08-17T11:20:51.912Z,51.15
2022-08-17T11:23:48.361Z,51.07
2022-08-17T11:26:28.131Z,50.91
2022-08-17T11:29:02.089Z,51.51
2022-08-17T11:31:38.550Z,51.73
2022-08-17T11:34:21.478Z,52.29
2022-08-17T11:37:01.399Z,51.92
2022-08-17T11:39:35.918Z,52.22
2022-08-17T11:42:16.554Z,52.48
2022-08-17T11:44:57.832Z,51.99
2022-08-17T11:48:26.088Z,50.21
2022-08-17T11:51:28.534Z,49.64
2022-08-17T11:54:32.136Z,50.05
2022-08-17T11:57:27.481Z,48.95
2022-08-17T12:00:00.001Z,50.30
2022-08-17T12:02:31.628Z,49.52
2022-08-17T12:05:01.904Z,48.89
2022-08-17T12:07:33.232Z,48.81
2022-08-17T12:10:02.013Z,49.30
2022-08-17T12:12:35.867Z,48.90
2022-08-17T12:15:11.900Z,50.08
2022-08-17T12:17:42.873Z,50.13
2022-08-17T12:20:34.840Z,50.16
2022-08-17T12:23:20.161Z,51.39
2022-08-17T12:25:59.301Z,50.41
2022-08-17T12:28:31.470Z,51.86
2022-08-17T12:31:07.200Z,52.45
2022-08-17T12:33:42.548Z,53.23
2022-08-17T12:36:15.112Z,53.96
2022-08-17T12:38:51.940Z,53.76
2022-08-17T12:41:42.185Z,53.61
2022-08-17T12:44:18.156Z,51.89
2022-08-17T12:46:46.585Z,52.91
2022-08-17T12:49:42.687Z,53.29
2022-08-17T12:52:25.006Z,54.03
2022-08-17T12:55:03.035Z,53.82
2022-08-17T12:57:33.545Z,54.76
2022-08-17T13:00:17.802Z,55.56
2022-08-17T13:03:13.954Z,55.56
2022-08-17T13:06:26.810Z,55.94
2022-08-17T13:08:55.322Z,52.96
2022-08-17T13:11:25.363Z,54.01
2022-08-17T13:13:56.337Z,53.50
2022-08-17T13:16:27.925Z,52.86
2022-08-17T13:19:09.069Z,52.03
2022-08-17T13:21:49.145Z,54.43
2022-08-17T13:24:25.658Z,53.92
2022-08-17T13:27:15.277Z,51.97
2022-08-17T13:29:51.313Z,52.28
2022-08-17T13:32:31.280Z,52.77
2022-08-17T13:35:35.380Z,55.56
2022-08-17T13:38:11.849Z,52.63
2022-08-17T13:40:52.922Z,54.97
2022-08-17T13:43:45.030Z,55.33
2022-08-17T13:46:19.527Z,54.49
2022-08-17T13:49:05.517Z,54.40
2022-08-17T13:51:46.192Z,52.81
2022-08-17T13:54:23.324Z,52.51
2022-08-17T13:57:01.877Z,54.19
2022-08-17T13:59:53.239Z,52.23
2022-08-17T14:02:27.233Z,52.22
2022-08-17T14:04:58.497Z,52.50
2022-08-17T14:07:31.966Z,52.02
2022-08-17T14:10:20.696Z,51.44
2022-08-17T14:12:50.238Z,51.23
2022-08-17T14:15:22.338Z,51.16
2022-08-17T14:17:52.175Z,50.64
2022-08-17T14:20:22.502Z,50.09
2022-08-17T14:22:53.177Z,49.77
2022-08-17T14:25:25.084Z,49.89
2022-08-17T14:27:55.713Z,50.07
2022-08-17T14:30:26.922Z,49.96
2022-08-17T14:32:58.778Z,49.96
2022-08-17T14:35:28.815Z,49.68
2022-08-17T14:37:57.877Z,50.34
2022-08-17T14:40:26.858Z,50.70
2022-08-17T14:42:57.670Z,50.61
2022-08-17T14:45:30.293Z,50.80
2022-08-17T14:48:04.087Z,50.38
2022-08-17T14:50:38.636Z,50.84
2022-08-17T14:53:10.581Z,51.25
2022-08-17T14:55:41.866Z,51.43
2022-08-17T14:58:10.363Z,51.53
2022-08-17T15:00:41.175Z,51.59
2022-08-17T15:03:11.427Z,51.11
2022-08-17T15:05:40.106Z,52.27
2022-08-17T15:08:08.613Z,53.21
2022-08-17T15:10:39.044Z,54.33
2022-08-17T15:13:17.534Z,54.75
2022-08-17T15:15:47.431Z,56.16
2022-08-17T15:18:16.576Z,56.41
2022-08-17T15:20:47.359Z,56.83
2022-08-17T15:23:19.553Z,55.22
2022-08-17T15:25:49.729Z,55.04
2022-08-17T15:28:20.409Z,55.08
2022-08-17T15:30:53.199Z,55.35
2022-08-17T15:33:30.328Z,55.27
2022-08-17T15:36:01.938Z,55.31
2022-08-17T15:38:33.869Z,55.13
2022-08-17T15:41:02.708Z,53.93
2022-08-17T15:43:32.565Z,54.42
2022-08-17T15:46:09.917Z,56.01
2022-08-17T15:48:41.793Z,55.87
2022-08-17T15:51:20.125Z,56.33
2022-08-17T15:53:53.327Z,56.41
2022-08-17T15:56:22.215Z,55.99
2022-08-17T15:58:51.289Z,56.63
2022-08-17T16:02:21.584Z,57.28
2022-08-17T16:04:26.810Z,56.30
2022-08-17T16:07:00.296Z,56.64
2022-08-17T16:09:28.765Z,56.67
2022-08-17T16:11:57.208Z,57.02
2022-08-17T16:14:28.884Z,57.11
2022-08-17T16:17:05.041Z,55.73
2022-08-17T16:19:53.428Z,55.16
2022-08-17T16:22:37.779Z,55.35
2022-08-17T16:25:11.139Z,56.96
2022-08-17T16:27:40.068Z,55.98
2022-08-17T16:30:14.981Z,55.23
2022-08-17T16:32:46.789Z,54.69
2022-08-17T16:35:18.177Z,56.22
2022-08-17T16:37:47.686Z,56.31
2022-08-17T16:40:17.197Z,55.56
2022-08-17T16:42:51.431Z,55.00
2022-08-17T16:45:26.513Z,54.57
2022-08-17T16:47:59.182Z,54.22
2022-08-17T16:50:27.870Z,54.39
2022-08-17T16:53:06.878Z,54.11
2022-08-17T16:55:35.865Z,53.74
2022-08-17T16:58:06.081Z,52.77
2022-08-17T17:00:36.130Z,52.74
2022-08-17T17:03:19.645Z,51.40
2022-08-17T17:06:17.044Z,52.25
2022-08-17T17:08:55.852Z,51.32
2022-08-17T17:11:33.586Z,51.16
2022-08-17T17:14:06.848Z,50.67
2022-08-17T17:16:35.247Z,50.44
2022-08-17T17:19:27.905Z,51.39
2022-08-17T17:22:29.430Z,50.01
2022-08-17T17:25:04.013Z,50.43
2022-08-17T17:27:42.796Z,52.03
2022-08-17T17:30:14.753Z,52.84
2022-08-17T17:32:49.619Z,52.98
2022-08-17T17:35:31.835Z,53.16
2022-08-17T17:38:07.614Z,53.23
2022-08-17T17:40:43.769Z,52.86
2022-08-17T17:43:37.862Z,53.54
2022-08-17T17:46:27.548Z,54.75
2022-08-17T17:48:58.290Z,53.97
2022-08-17T17:52:07.980Z,53.84
2022-08-17T17:54:36.258Z,53.92
2022-08-17T17:57:15.671Z,53.17
2022-08-17T18:00:08.668Z,52.99
2022-08-17T18:03:09.602Z,51.43
2022-08-17T18:06:08.105Z,51.01
2022-08-17T18:08:58.846Z,51.67
2022-08-17T18:11:51.643Z,52.68
2022-08-17T18:15:03.599Z,53.08
2022-08-17T18:17:33.373Z,52.20
2022-08-17T18:20:04.217Z,53.04
2022-08-17T18:22:32.744Z,53.64
2022-08-17T18:25:01.398Z,53.55
2022-08-17T18:27:36.700Z,53.80
2022-08-17T18:30:14.354Z,54.69
2022-08-17T18:32:46.364Z,55.45
2022-08-17T18:35:14.719Z,55.53
2022-08-17T18:37:57.738Z,54.89
2022-08-17T18:40:33.427Z,55.76
2022-08-17T18:43:13.260Z,55.29
2022-08-17T18:45:47.305Z,54.32
2022-08-17T18:48:24.332Z,54.33
2022-08-17T18:50:58.293Z,53.82
2022-08-17T18:53:36.192Z,52.34
2022-08-17T18:56:27.069Z,51.89
2022-08-17T18:59:27.020Z,51.82
2022-08-17T19:02:27.267Z,51.79
2022-08-17T19:05:10.023Z,53.21
2022-08-17T19:07:45.310Z,53.70
2022-08-17T19:10:23.024Z,52.51
2022-08-17T19:13:12.832Z,52.27
2022-08-17T19:16:14.571Z,54.27
2022-08-17T19:19:03.886Z,55.31
2022-08-17T19:21:44.564Z,55.07
2022-08-17T19:24:19.739Z,53.83
2022-08-17T19:26:56.564Z,53.77
2022-08-17T19:29:34.280Z,54.88
2022-08-17T19:32:06.475Z,55.73
2022-08-17T19:34:37.084Z,55.43
2022-08-17T19:37:14.555Z,55.25
2022-08-17T19:39:48.931Z,54.50
2022-08-17T19:42:31.095Z,53.01
2022-08-17T19:45:15.752Z,53.49
2022-08-17T19:48:03.155Z,54.23
2022-08-17T19:50:41.254Z,54.88
2022-08-17T19:53:41.738Z,53.37
2022-08-17T19:56:39.851Z,53.28
2022-08-17T19:59:13.267Z,53.41
2022-08-17T20:02:01.158Z,53.41
2022-08-17T20:04:31.878Z,53.80
2022-08-17T20:07:06.475Z,53.01
2022-08-17T20:09:44.371Z,53.50
2022-08-17T20:12:27.573Z,54.47
2022-08-17T20:15:04.005Z,54.63
2022-08-17T20:17:43.383Z,54.49
2022-08-17T20:20:20.849Z,53.87
2022-08-17T20:23:04.700Z,54.36
2022-08-17T20:25:46.112Z,53.89
2022-08-17T20:28:27.994Z,54.09
2022-08-17T20:30:57.648Z,54.24
2022-08-17T20:33:36.813Z,54.52
2022-08-17T20:36:11.064Z,53.01
2022-08-17T20:38:53.697Z,52.08
2022-08-17T20:41:24.642Z,52.45
2022-08-17T20:43:59.137Z,51.96
2022-08-17T20:46:45.966Z,51.92
2022-08-17T20:49:27.066Z,51.94
2022-08-17T20:52:02.331Z,53.20
2022-08-17T20:54:51.121Z,52.53
2022-08-17T20:57:32.021Z,52.45
2022-08-17T21:00:23.417Z,54.31
2022-08-17T21:03:23.462Z,54.39
2022-08-17T21:06:15.371Z,52.93
2022-08-17T21:08:57.456Z,53.78
2022-08-17T21:12:03.088Z,56.10
2022-08-17T21:14:32.614Z,56.48
2022-08-17T21:17:17.449Z,56.16
2022-08-17T21:20:14.432Z,56.68
2022-08-17T21:22:58.981Z,56.06
2022-08-17T21:25:55.382Z,55.99
2022-08-17T21:29:00.820Z,56.20
2022-08-17T21:31:37.013Z,55.86
2022-08-17T21:34:14.960Z,56.29
2022-08-17T21:36:44.955Z,54.81
2022-08-17T21:39:16.162Z,54.62
2022-08-17T21:41:55.830Z,55.66
2022-08-17T21:44:34.434Z,56.06
2022-08-17T21:47:26.417Z,56.85
2022-08-17T21:49:56.681Z,57.39
2022-08-17T21:52:27.242Z,57.59
2022-08-17T21:54:58.442Z,57.20
2022-08-17T21:57:29.902Z,58.25
2022-08-17T22:00:01.082Z,58.29
2022-08-17T22:02:37.737Z,58.77
2022-08-17T22:05:13.865Z,60.39
2022-08-17T22:07:44.264Z,58.88
2022-08-17T22:10:39.225Z,58.48
2022-08-17T22:13:29.692Z,58.10
2022-08-17T22:16:27.979Z,57.88
2022-08-17T22:19:00.824Z,57.00
2022-08-17T22:21:29.276Z,57.83
2022-08-17T22:24:04.717Z,56.97
2022-08-17T22:27:00.139Z,56.43
2022-08-17T22:29:45.580Z,56.96
2022-08-17T22:32:34.932Z,57.66
2022-08-17T22:35:28.482Z,57.94
2022-08-17T22:37:57.532Z,56.07
2022-08-17T22:40:34.391Z,56.58
2022-08-17T22:43:03.511Z,56.87
2022-08-17T22:45:33.615Z,57.45
2022-08-17T22:48:02.114Z,57.79
2022-08-17T22:50:33.197Z,59.60
2022-08-17T22:53:31.820Z,58.26
2022-08-17T22:56:35.417Z,58.76
2022-08-17T22:59:20.587Z,57.98
2022-08-17T23:02:11.676Z,57.86
2022-08-17T23:04:47.683Z,58.35
2022-08-17T23:07:17.383Z,58.58
2022-08-17T23:09:45.862Z,57.97
2022-08-17T23:12:23.946Z,57.37
2022-08-17T23:14:58.390Z,56.31
2022-08-17T23:17:32.798Z,56.55
2022-08-17T23:20:06.137Z,55.40
2022-08-17T23:22:37.245Z,55.86
2022-08-17T23:25:06.436Z,56.01
2022-08-17T23:27:34.868Z,55.20
2022-08-17T23:30:03.673Z,54.67
2022-08-17T23:32:36.165Z,54.50
2022-08-17T23:35:16.605Z,55.15
2022-08-17T23:37:45.122Z,54.86
2022-08-17T23:40:13.595Z,54.77
2022-08-17T23:42:46.431Z,54.83
2022-08-17T23:45:16.134Z,55.09
2022-08-17T23:47:45.266Z,55.11
2022-08-17T23:50:15.214Z,54.53
2022-08-17T23:52:46.600Z,54.73
2022-08-17T23:55:15.040Z,54.51
2022-08-17T23:57:44.765Z,54.75
